createdAt,value
2023-05-03T00:04:16.928Z,99499.88
2023-05-03T00:09:19.863Z,99506.81
2023-05-03T00:14:22.571Z,99498.25
2023-05-03T00:19:31.700Z,99495.19
2023-05-03T00:24:35.626Z,99497.56
2023-05-03T00:29:38.841Z,99494.13
2023-05-03T00:34:43.105Z,99484.88
2023-05-03T00:39:45.892Z,99481.72
2023-05-03T00:44:48.672Z,99470.78
2023-05-03T00:49:52.871Z,99453.38
2023-05-03T00:54:55.611Z,99461.94
2023-05-03T00:59:58.944Z,99462.94
2023-05-03T01:05:03.434Z,99460.63
2023-05-03T01:10:18.798Z,99466.72
2023-05-03T01:15:33.516Z,99469.16
2023-05-03T01:20:38.582Z,99468.03
2023-05-03T01:25:42.755Z,99465.03
2023-05-03T01:30:47.123Z,99461.34
2023-05-03T01:35:55.987Z,99471.66
2023-05-03T01:41:03.473Z,99464.16
2023-05-03T01:46:06.611Z,99469.03
2023-05-03T01:51:09.546Z,99465.63
2023-05-03T01:56:13.843Z,99487.13
2023-05-03T02:01:16.637Z,99488.25
2023-05-03T02:06:19.457Z,99491.13
2023-05-03T02:11:23.585Z,99493.56
2023-05-03T02:16:27.614Z,99497.06
2023-05-03T02:21:31.511Z,99491.91
2023-05-03T02:26:35.648Z,99491.41
2023-05-03T02:31:39.321Z,99483.56
2023-05-03T02:36:42.956Z,99477.63
2023-05-03T02:41:47.276Z,99489.53
2023-05-03T02:46:50.444Z,99480.97
2023-05-03T02:51:53.947Z,99474.03
2023-05-03T02:56:58.106Z,99477.00
2023-05-03T03:02:00.943Z,99486.72
2023-05-03T03:07:03.911Z,99480.44
2023-05-03T03:12:08.312Z,99486.88
2023-05-03T03:17:11.794Z,99491.00
2023-05-03T03:22:15.107Z,99483.34
2023-05-03T03:27:19.308Z,99483.50
2023-05-03T03:32:22.749Z,99489.00
2023-05-03T03:37:25.787Z,99485.88
2023-05-03T03:42:31.625Z,99474.31
2023-05-03T03:47:34.863Z,99486.56
2023-05-03T03:52:37.925Z,99489.34
2023-05-03T03:57:42.415Z,99490.28
2023-05-03T04:02:46.987Z,99488.56
2023-05-03T04:07:53.663Z,99483.16
2023-05-03T04:12:58.495Z,99473.56
2023-05-03T04:18:01.407Z,99474.47
2023-05-03T04:23:04.543Z,99470.22
2023-05-03T04:28:09.998Z,99471.38
2023-05-03T04:33:17.399Z,99472.28
2023-05-03T04:38:20.556Z,99471.22
2023-05-03T04:43:25.054Z,99476.31
2023-05-03T04:48:27.951Z,99483.63
2023-05-03T04:53:32.020Z,99488.50
2023-05-03T04:58:44.918Z,99486.25
2023-05-03T05:03:50.348Z,99485.09
2023-05-03T05:08:57.862Z,99487.50
2023-05-03T05:14:02.095Z,99480.50
2023-05-03T05:19:05.313Z,99479.22
2023-05-03T05:24:08.467Z,99478.50
2023-05-03T05:29:13.675Z,99486.28
2023-05-03T05:34:16.519Z,99487.69
2023-05-03T05:39:21.121Z,99481.72
2023-05-03T05:44:26.022Z,99497.44
2023-05-03T05:49:29.985Z,99497.00
2023-05-03T05:54:33.940Z,99501.72
2023-05-03T05:59:38.630Z,99505.75
2023-05-03T06:04:41.886Z,99510.91
2023-05-03T06:09:45.055Z,99509.84
2023-05-03T06:15:01.947Z,99514.84
2023-05-03T06:20:14.259Z,99509.97
2023-05-03T06:25:19.566Z,99506.34
2023-05-03T06:30:29.096Z,99511.72
2023-05-03T06:35:37.727Z,99510.38
2023-05-03T06:40:42.453Z,99518.06
2023-05-03T06:45:48.778Z,99514.22
2023-05-03T06:50:51.655Z,99521.91
2023-05-03T06:55:54.392Z,99519.53
2023-05-03T07:00:58.627Z,99522.19
2023-05-03T07:06:04.124Z,99514.50
2023-05-03T07:11:07.647Z,99511.38
2023-05-03T07:16:14.469Z,99504.41
2023-05-03T07:21:18.083Z,99506.28
2023-05-03T07:26:21.786Z,99511.06
2023-05-03T07:31:26.030Z,99506.84
2023-05-03T07:36:29.079Z,99511.09
2023-05-03T07:41:33.862Z,99506.81
2023-05-03T07:46:38.117Z,99503.84
2023-05-03T07:51:41.115Z,99506.97
2023-05-03T07:56:43.911Z,99505.78
2023-05-03T08:01:48.277Z,99500.22
2023-05-03T08:06:51.183Z,99505.78
2023-05-03T08:11:56.140Z,99504.06
2023-05-03T08:17:02.048Z,99503.06
2023-05-03T08:22:05.603Z,99498.97
2023-05-03T08:27:09.587Z,99496.69
2023-05-03T08:32:16.135Z,99497.56
2023-05-03T08:37:18.841Z,99494.72
2023-05-03T08:42:25.163Z,99487.53
2023-05-03T08:47:36.222Z,99480.53
2023-05-03T08:52:40.889Z,99487.53
2023-05-03T08:57:44.938Z,99476.31
2023-05-03T09:02:52.636Z,99477.72
2023-05-03T09:21:23.166Z,99468.19
2023-05-03T09:26:34.565Z,99460.94
2023-05-03T09:31:59.329Z,99467.63
2023-05-03T09:37:04.352Z,99460.00
2023-05-03T09:42:13.135Z,99469.94
2023-05-03T09:47:17.244Z,99464.97
2023-05-03T09:52:23.288Z,99468.41
2023-05-03T09:57:27.201Z,99478.50
2023-05-03T10:02:33.068Z,99476.25
2023-05-03T10:07:41.237Z,99463.47
2023-05-03T10:12:46.503Z,99462.09
2023-05-03T10:17:54.627Z,99453.19
2023-05-03T10:23:12.605Z,99440.94
2023-05-03T10:28:15.920Z,99442.38
2023-05-03T10:33:33.284Z,99432.78
2023-05-03T10:38:39.404Z,99430.59
2023-05-03T10:43:44.266Z,99433.69
2023-05-03T10:49:16.288Z,99430.00
2023-05-03T10:54:20.661Z,99433.16
2023-05-03T10:59:26.129Z,99426.03
2023-05-03T11:04:40.568Z,99420.22
2023-05-03T11:09:47.588Z,99406.19
2023-05-03T11:14:51.696Z,99402.09
2023-05-03T11:19:54.946Z,99398.19
2023-05-03T11:24:59.255Z,99401.19
2023-05-03T11:30:02.011Z,99389.72
2023-05-03T11:35:07.250Z,99376.88
2023-05-03T11:40:18.281Z,99369.91
2023-05-03T11:45:25.109Z,99373.31
2023-05-03T11:50:44.258Z,99376.66
2023-05-03T11:55:49.909Z,99373.13
2023-05-03T12:00:55.350Z,99371.25
2023-05-03T12:05:58.765Z,99373.06
2023-05-03T12:11:06.871Z,99371.56
2023-05-03T12:16:14.943Z,99364.03
2023-05-03T12:26:29.377Z,99336.28
2023-05-03T12:31:35.000Z,99338.88
2023-05-03T12:36:38.992Z,99334.38
2023-05-03T12:46:54.854Z,99331.69
2023-05-03T12:57:15.323Z,99316.00
2023-05-03T13:03:20.166Z,99310.31
2023-05-03T13:07:43.923Z,99318.31
2023-05-03T13:12:48.846Z,99309.59
2023-05-03T13:17:52.633Z,99305.16
2023-05-03T13:22:58.733Z,99299.81
2023-05-03T13:28:03.917Z,99281.31
2023-05-03T13:33:07.437Z,99288.44
2023-05-03T13:38:10.441Z,99280.72
2023-05-03T13:43:15.159Z,99276.28
2023-05-03T13:48:19.288Z,99260.19
2023-05-03T13:53:22.927Z,99249.84
2023-05-03T13:58:27.023Z,99249.28
2023-05-03T14:03:30.258Z,99241.59
2023-05-03T14:08:33.120Z,99240.34
2023-05-03T14:13:53.866Z,99225.16
2023-05-03T14:18:58.844Z,99219.22
2023-05-03T14:24:03.428Z,99208.72
2023-05-03T14:29:08.546Z,99202.50
2023-05-03T14:34:11.317Z,99205.16
2023-05-03T14:39:16.284Z,99204.03
2023-05-03T14:44:20.605Z,99201.94
2023-05-03T14:49:23.484Z,99189.63
2023-05-03T14:54:28.901Z,99187.81
2023-05-03T14:59:33.912Z,99188.66
2023-05-03T15:04:39.623Z,99190.72
2023-05-03T15:09:42.972Z,99186.28
2023-05-03T15:14:48.962Z,99191.91
2023-05-03T15:19:52.672Z,99182.22
2023-05-03T15:24:55.945Z,99186.72
2023-05-03T15:30:00.514Z,99190.16
2023-05-03T15:35:05.773Z,99181.81
2023-05-03T15:40:11.753Z,99185.81
2023-05-03T15:45:15.917Z,99181.34
2023-05-03T15:50:19.890Z,99175.78
2023-05-03T15:55:23.347Z,99186.69
2023-05-03T16:00:27.791Z,99169.41
2023-05-03T16:05:31.723Z,99176.00
2023-05-03T16:10:34.777Z,99169.09
2023-05-03T16:15:39.648Z,99168.81
2023-05-03T16:20:42.425Z,99163.84
2023-05-03T16:25:45.151Z,99167.59
2023-05-03T16:30:49.769Z,99156.38
2023-05-03T16:35:52.613Z,99158.16
2023-05-03T16:40:55.468Z,99167.28
2023-05-03T16:46:01.447Z,99168.66
2023-05-03T16:51:04.488Z,99155.63
2023-05-03T16:56:07.471Z,99157.94
2023-05-03T17:01:11.720Z,99148.63
2023-05-03T17:06:15.702Z,99146.78
2023-05-03T17:11:18.499Z,99149.53
2023-05-03T17:16:23.252Z,99139.63
2023-05-03T17:21:27.454Z,99128.94
2023-05-03T17:26:30.336Z,99129.88
2023-05-03T17:31:34.529Z,99121.25
2023-05-03T17:36:37.793Z,99124.66
2023-05-03T17:41:42.733Z,99116.66
2023-05-03T17:46:48.849Z,99125.06
2023-05-03T17:51:52.079Z,99124.31
2023-05-03T17:56:57.733Z,99117.19
2023-05-03T18:02:05.587Z,99109.91
2023-05-03T18:07:08.557Z,99116.38
2023-05-03T18:12:11.438Z,99115.75
2023-05-03T18:17:15.728Z,99117.41
2023-05-03T18:22:22.242Z,99120.81
2023-05-03T18:27:26.284Z,99121.47
2023-05-03T18:32:30.367Z,99125.13
2023-05-03T18:37:33.131Z,99129.59
2023-05-03T18:42:35.936Z,99129.78
2023-05-03T18:47:40.844Z,99134.75
2023-05-03T18:52:44.948Z,99126.34
2023-05-03T18:57:48.068Z,99132.91
2023-05-03T19:02:52.489Z,99130.41
2023-05-03T19:07:55.485Z,99126.47
2023-05-03T19:12:58.492Z,99126.31
2023-05-03T19:18:03.591Z,99133.19
2023-05-03T19:23:06.709Z,99132.50
2023-05-03T19:28:10.582Z,99135.97
2023-05-03T19:33:14.761Z,99138.31
2023-05-03T19:38:17.469Z,99136.25
2023-05-03T19:43:20.399Z,99143.13
2023-05-03T19:48:24.769Z,99137.31
2023-05-03T19:53:28.749Z,99136.78
2023-05-03T19:58:32.059Z,99139.94
2023-05-03T20:03:36.430Z,99148.09
2023-05-03T20:08:39.281Z,99143.81
2023-05-03T20:13:42.652Z,99145.16
2023-05-03T20:18:47.749Z,99138.94
2023-05-03T20:23:51.253Z,99136.00
2023-05-03T20:28:54.034Z,99135.38
2023-05-03T20:33:58.390Z,99128.47
2023-05-03T20:39:01.144Z,99127.34
2023-05-03T20:44:04.559Z,99126.47
2023-05-03T20:49:10.116Z,99128.88
2023-05-03T20:54:13.407Z,99126.94
2023-05-03T20:59:17.039Z,99124.34
2023-05-03T21:04:21.244Z,99120.78
2023-05-03T21:09:24.388Z,99121.56
2023-05-03T21:14:28.628Z,99122.59
2023-05-03T21:19:35.078Z,99127.56
2023-05-03T21:24:38.895Z,99136.31
2023-05-03T21:29:41.613Z,99131.03
2023-05-03T21:34:46.148Z,99130.00
2023-05-03T21:40:00.504Z,99125.34
2023-05-03T21:45:05.402Z,99115.25
2023-05-03T21:50:10.533Z,99123.88
2023-05-03T21:55:13.347Z,99116.75
2023-05-03T22:00:20.848Z,99105.38
2023-05-03T22:05:26.692Z,99100.69
2023-05-03T22:10:29.390Z,99094.56
2023-05-03T22:15:32.188Z,99100.91
2023-05-03T22:20:36.281Z,99098.03
2023-05-03T22:25:39.041Z,99098.22
2023-05-03T22:30:41.835Z,99097.13
2023-05-03T22:35:45.982Z,99097.88
2023-05-03T22:40:48.760Z,99092.03
2023-05-03T22:45:51.473Z,99081.16
2023-05-03T22:50:55.661Z,99086.69
2023-05-03T22:55:58.907Z,99085.66
2023-05-03T23:01:01.739Z,99081.50
2023-05-03T23:06:06.340Z,99085.75
2023-05-03T23:11:09.383Z,99075.63
2023-05-03T23:16:12.376Z,99070.72
2023-05-03T23:21:16.498Z,99066.00
2023-05-03T23:26:19.940Z,99064.59
2023-05-03T23:31:23.064Z,99063.59
2023-05-03T23:36:27.910Z,99070.56
2023-05-03T23:41:30.819Z,99070.94
2023-05-03T23:46:34.524Z,99066.97
2023-05-03T23:51:38.743Z,99067.16
2023-05-03T23:56:41.738Z,99059.50
